Terminal Aerodrome Forecast
Issued by NWS

Home | Current Version | Previous Version | Text Only | Print | Product List | Glossary On
Versions: 1 2 3 4 5 6 7 8 9 10 11 12
000
FTUS43 KMQT 041721
TAFCMX
TAF
KCMX 041721Z 0418/0518 10006KT P6SM SCT250
     FM050700 17004KT P6SM SKC
     FM051400 21011KT P6SM SKC=

USA.gov is the U.S. government's official web portal to all federal, state and local government web resources and services.